createdAt,value
2023-04-03T00:00:44.512Z,62.41
2023-04-03T00:03:14.778Z,62.33
2023-04-03T00:06:00.087Z,61.73
2023-04-03T00:09:03.503Z,62.37
2023-04-03T00:14:53.077Z,62.59
2023-04-03T00:18:44.974Z,62.48
2023-04-03T00:21:43.694Z,62.67
2023-04-03T00:24:47.035Z,62.73
2023-04-03T00:27:50.319Z,62.68
2023-04-03T00:30:45.545Z,62.80
2023-04-03T00:38:05.112Z,63.40
2023-04-03T00:46:06.422Z,63.24
2023-04-03T00:53:27.194Z,63.03
2023-04-03T00:56:05.580Z,64.14
2023-04-03T00:59:13.260Z,63.94
2023-04-03T01:01:53.409Z,63.98
2023-04-03T01:06:22.552Z,64.03
2023-04-03T01:13:38.434Z,64.72
2023-04-03T01:16:19.446Z,64.98
2023-04-03T01:19:00.808Z,65.46
2023-04-03T01:22:40.134Z,65.67
2023-04-03T01:26:01.249Z,65.60
2023-04-03T01:28:43.063Z,65.40
2023-04-03T01:31:40.144Z,66.20
2023-04-03T01:35:02.536Z,65.95
2023-04-03T01:38:02.081Z,66.02
2023-04-03T01:40:43.529Z,66.01
2023-04-03T01:47:05.166Z,66.48
2023-04-03T01:50:17.070Z,66.61
2023-04-03T01:53:12.608Z,66.77
2023-04-03T01:55:52.970Z,67.61
2023-04-03T01:58:44.064Z,67.88
2023-04-03T02:01:14.852Z,67.55
2023-04-03T02:03:55.691Z,67.37
2023-04-03T02:07:09.738Z,68.33
2023-04-03T02:09:53.158Z,68.31
2023-04-03T02:13:36.491Z,68.59
2023-04-03T02:16:36.959Z,68.79
2023-04-03T02:19:14.438Z,68.39
2023-04-03T02:21:51.868Z,68.80
2023-04-03T02:25:16.436Z,69.41
2023-04-03T02:28:46.727Z,68.81
2023-04-03T02:31:42.661Z,69.45
2023-04-03T02:35:07.347Z,69.19
2023-04-03T02:39:19.960Z,69.37
2023-04-03T02:43:16.092Z,69.56
2023-04-03T02:46:46.740Z,69.62
2023-04-03T02:49:29.346Z,69.69
2023-04-03T02:53:47.200Z,69.82
2023-04-03T02:57:43.678Z,70.04
2023-04-03T03:29:06.227Z,70.22
2023-04-03T03:31:51.594Z,70.33
2023-04-03T03:34:30.439Z,71.08
2023-04-03T03:37:18.660Z,71.14
2023-04-03T03:39:50.681Z,71.30
2023-04-03T03:43:48.401Z,71.73
2023-04-03T03:46:44.733Z,71.58
2023-04-03T03:49:48.912Z,72.03
2023-04-03T03:52:49.293Z,71.88
2023-04-03T03:55:50.522Z,72.56
2023-04-03T03:58:46.383Z,71.73
2023-04-03T04:01:19.607Z,72.52
2023-04-03T04:03:59.769Z,72.79
2023-04-03T04:06:38.578Z,72.43
2023-04-03T04:09:20.582Z,72.96
2023-04-03T04:11:55.336Z,73.57
2023-04-03T04:15:06.596Z,73.47
2023-04-03T04:18:16.349Z,73.22
2023-04-03T04:21:12.772Z,73.62
2023-04-03T04:27:20.060Z,73.75
2023-04-03T04:29:54.614Z,74.04
2023-04-03T04:33:20.132Z,73.88
2023-04-03T04:37:07.221Z,73.92
2023-04-03T04:39:42.049Z,74.35
2023-04-03T04:42:41.993Z,74.14
2023-04-03T04:45:14.668Z,74.74
2023-04-03T04:53:19.841Z,74.34
2023-04-03T05:04:53.308Z,74.29
2023-04-03T05:07:31.754Z,74.56
2023-04-03T05:12:46.137Z,75.22
2023-04-03T05:16:33.015Z,75.22
2023-04-03T05:19:07.696Z,74.96
2023-04-03T05:22:05.310Z,75.55
2023-04-03T05:24:34.768Z,75.40
2023-04-03T05:27:05.621Z,75.42
2023-04-03T05:29:50.573Z,75.62
2023-04-03T05:32:19.797Z,75.83
2023-04-03T05:34:49.877Z,76.00
2023-04-03T05:37:22.022Z,76.07
2023-04-03T05:39:51.605Z,76.30
2023-04-03T05:42:30.912Z,75.89
2023-04-03T05:45:00.220Z,76.28
2023-04-03T05:47:33.167Z,76.05
2023-04-03T05:50:03.023Z,76.42
2023-04-03T05:52:41.938Z,76.69
2023-04-03T05:55:42.661Z,76.38
2023-04-03T05:58:15.350Z,76.51
2023-04-03T06:00:45.535Z,76.43
2023-04-03T06:06:01.375Z,76.68
2023-04-03T06:08:35.363Z,76.79
2023-04-03T06:11:08.067Z,76.46
2023-04-03T06:13:38.545Z,76.68
2023-04-03T06:16:08.283Z,76.44
2023-04-03T06:18:37.927Z,76.91
2023-04-03T06:21:08.840Z,76.61
2023-04-03T06:23:39.765Z,76.12
2023-04-03T06:26:08.340Z,76.26
2023-04-03T06:28:38.129Z,76.34
2023-04-03T06:31:07.503Z,76.49
2023-04-03T06:33:37.834Z,76.68
2023-04-03T06:36:09.400Z,76.08
2023-04-03T06:38:46.196Z,76.54
2023-04-03T06:41:15.203Z,76.41
2023-04-03T06:43:44.545Z,76.33
2023-04-03T06:46:19.266Z,76.53
2023-04-03T06:48:48.645Z,76.51
2023-04-03T06:51:28.902Z,75.72
2023-04-03T06:54:02.600Z,75.72
2023-04-03T06:56:44.996Z,75.37
2023-04-03T06:59:16.189Z,75.63
2023-04-03T07:01:45.343Z,75.95
2023-04-03T07:04:14.599Z,75.77
2023-04-03T07:06:44.689Z,74.54
2023-04-03T07:09:15.258Z,74.88
2023-04-03T07:12:00.118Z,74.83
2023-04-03T07:14:30.624Z,74.47
2023-04-03T07:17:01.211Z,74.59
2023-04-03T07:19:50.800Z,74.33
2023-04-03T07:22:20.181Z,73.78
2023-04-03T07:24:53.189Z,74.03
2023-04-03T07:27:23.960Z,74.36
2023-04-03T07:29:56.621Z,73.21
2023-04-03T07:32:48.309Z,72.99
2023-04-03T07:35:18.510Z,73.24
2023-04-03T07:37:48.061Z,72.70
2023-04-03T07:40:20.376Z,71.57
2023-04-03T07:42:57.377Z,72.30
2023-04-03T07:45:38.786Z,71.72
2023-04-03T07:48:08.262Z,71.68
2023-04-03T07:50:49.000Z,70.95
2023-04-03T07:53:18.883Z,70.41
2023-04-03T07:55:53.354Z,70.59
2023-04-03T07:58:31.381Z,70.34
2023-04-03T08:01:02.118Z,69.46
2023-04-03T08:03:33.629Z,69.47
2023-04-03T08:06:15.763Z,69.10
2023-04-03T08:08:47.065Z,68.42
2023-04-03T08:11:21.632Z,68.03
2023-04-03T08:13:53.646Z,67.60
2023-04-03T08:16:30.315Z,66.64
2023-04-03T08:19:02.616Z,66.08
2023-04-03T08:21:34.690Z,65.92
2023-04-03T08:24:06.057Z,65.19
2023-04-03T08:26:38.540Z,64.38
2023-04-03T08:29:09.506Z,64.14
2023-04-03T08:31:39.399Z,63.53
2023-04-03T08:34:10.753Z,62.72
2023-04-03T08:36:41.249Z,63.05
2023-04-03T08:39:20.413Z,62.09
2023-04-03T08:41:54.076Z,61.73
2023-04-03T08:44:43.653Z,60.96
2023-04-03T08:47:40.646Z,60.82
2023-04-03T08:50:16.960Z,59.41
2023-04-03T08:52:53.273Z,58.86
2023-04-03T08:55:30.319Z,58.25
2023-04-03T08:58:08.027Z,58.69
2023-04-03T09:00:49.155Z,58.34
2023-04-03T09:03:22.532Z,56.58
2023-04-03T09:05:59.780Z,57.03
2023-04-03T09:08:33.060Z,56.60
2023-04-03T09:11:19.810Z,56.10
2023-04-03T09:14:00.989Z,55.18
2023-04-03T09:16:42.734Z,53.66
2023-04-03T09:19:29.668Z,53.37
2023-04-03T09:22:01.339Z,53.38
2023-04-03T09:24:35.263Z,52.14
2023-04-03T09:27:12.273Z,51.46
2023-04-03T09:29:49.038Z,50.86
2023-04-03T09:32:31.383Z,50.38
2023-04-03T09:35:18.916Z,49.40
2023-04-03T09:37:57.117Z,48.38
2023-04-03T09:40:40.233Z,48.63
2023-04-03T09:43:32.152Z,48.26
2023-04-03T09:46:29.199Z,48.46
2023-04-03T09:49:12.470Z,47.79
2023-04-03T09:51:42.240Z,46.72
2023-04-03T09:54:42.360Z,47.63
2023-04-03T09:57:29.689Z,46.10
2023-04-03T10:00:14.692Z,45.51
2023-04-03T10:02:45.987Z,45.63
2023-04-03T10:05:35.371Z,45.42
2023-04-03T10:08:27.585Z,44.68
2023-04-03T10:11:17.590Z,44.57
2023-04-03T10:14:10.079Z,43.53
2023-04-03T10:16:55.244Z,43.56
2023-04-03T10:19:42.503Z,43.56
2023-04-03T10:22:25.718Z,43.41
2023-04-03T10:25:23.720Z,42.84
2023-04-03T10:28:14.549Z,42.00
2023-04-03T10:30:57.688Z,42.22
2023-04-03T10:33:45.780Z,41.91
2023-04-03T10:36:32.388Z,41.48
2023-04-03T10:39:14.897Z,41.24
2023-04-03T10:42:16.021Z,40.85
2023-04-03T10:45:13.662Z,40.94
2023-04-03T10:47:50.476Z,40.39
2023-04-03T10:50:41.001Z,39.92
2023-04-03T10:53:27.947Z,40.35
2023-04-03T10:56:08.479Z,40.08
2023-04-03T10:58:46.999Z,39.55
2023-04-03T11:01:23.459Z,38.89
2023-04-03T11:03:59.934Z,38.68
2023-04-03T11:06:41.543Z,38.61
2023-04-03T11:09:34.530Z,38.00
2023-04-03T11:12:09.471Z,38.34
2023-04-03T11:14:41.683Z,37.98
2023-04-03T11:17:34.338Z,37.69
2023-04-03T11:20:13.695Z,37.39
2023-04-03T11:22:46.848Z,36.50
2023-04-03T11:25:31.868Z,36.69
2023-04-03T11:28:05.095Z,35.91
2023-04-03T11:30:53.526Z,36.42
2023-04-03T11:33:47.306Z,36.24
2023-04-03T11:36:30.285Z,35.89
2023-04-03T11:39:21.202Z,36.05
2023-04-03T11:42:34.945Z,35.96
2023-04-03T11:45:37.241Z,36.29
2023-04-03T11:48:21.200Z,36.31
2023-04-03T11:51:04.579Z,36.00
2023-04-03T11:53:40.261Z,35.37
2023-04-03T11:56:33.418Z,35.59
2023-04-03T11:59:40.580Z,35.21
2023-04-03T12:05:31.682Z,35.09
2023-04-03T12:08:29.190Z,34.92
2023-04-03T12:11:31.483Z,34.21
2023-04-03T12:14:18.077Z,33.40
2023-04-03T12:17:02.937Z,33.91
2023-04-03T12:19:45.754Z,33.68
2023-04-03T12:22:22.764Z,33.40
2023-04-03T12:24:56.158Z,32.90
2023-04-03T12:27:36.147Z,32.26
2023-04-03T12:30:18.282Z,32.21
2023-04-03T12:33:24.158Z,31.89
2023-04-03T12:36:08.430Z,31.83
2023-04-03T12:39:03.761Z,31.53
2023-04-03T12:41:41.422Z,30.61
2023-04-03T12:44:39.471Z,30.04
2023-04-03T12:47:28.857Z,29.55
2023-04-03T12:50:02.852Z,28.81
2023-04-03T12:52:43.117Z,28.77
2023-04-03T12:55:20.363Z,28.08
2023-04-03T12:57:51.644Z,27.89
2023-04-03T13:00:35.336Z,27.80
2023-04-03T13:03:23.024Z,27.20
2023-04-03T13:05:58.488Z,26.88
2023-04-03T13:08:29.916Z,26.24
2023-04-03T13:11:04.635Z,26.05
2023-04-03T13:13:33.539Z,25.53
2023-04-03T13:16:15.178Z,25.82
2023-04-03T13:18:44.780Z,24.70
2023-04-03T13:21:24.370Z,24.45
2023-04-03T13:24:11.495Z,25.05
2023-04-03T13:26:45.094Z,24.57
2023-04-03T13:29:31.306Z,24.09
2023-04-03T13:32:17.062Z,24.76
2023-04-03T13:34:47.732Z,23.85
2023-04-03T13:37:30.406Z,23.39
2023-04-03T13:40:12.210Z,23.14
2023-04-03T13:42:44.730Z,23.17
2023-04-03T13:45:28.738Z,23.19
2023-04-03T13:48:23.394Z,22.55
2023-04-03T13:51:21.499Z,21.81
2023-04-03T13:54:08.891Z,21.84
2023-04-03T13:56:43.957Z,21.70
2023-04-03T13:59:31.180Z,22.29
2023-04-03T14:02:20.104Z,21.16
2023-04-03T14:04:59.948Z,21.14
2023-04-03T14:07:32.362Z,21.08
2023-04-03T14:10:12.641Z,21.41
2023-04-03T14:12:42.683Z,21.18
2023-04-03T14:15:23.240Z,21.55
2023-04-03T14:18:26.257Z,20.92
2023-04-03T14:20:58.589Z,20.02
2023-04-03T14:23:32.034Z,19.90
2023-04-03T14:26:14.960Z,20.05
2023-04-03T14:28:45.356Z,19.33
2023-04-03T14:31:17.686Z,19.21
2023-04-03T14:34:14.350Z,19.16
2023-04-03T14:36:47.998Z,18.97
2023-04-03T14:39:22.381Z,18.88
2023-04-03T14:41:56.038Z,17.88
2023-04-03T14:44:28.219Z,18.47
2023-04-03T14:46:59.741Z,18.78
2023-04-03T14:49:32.127Z,18.61
2023-04-03T14:52:02.077Z,18.70
2023-04-03T14:54:32.813Z,19.27
2023-04-03T14:57:05.454Z,18.20
2023-04-03T14:59:35.043Z,17.95
2023-04-03T15:02:08.411Z,18.40
2023-04-03T15:04:37.706Z,18.62
2023-04-03T15:07:08.581Z,18.28
2023-04-03T15:09:39.221Z,18.38
2023-04-03T15:12:15.646Z,18.54
2023-04-03T15:14:52.421Z,18.24
2023-04-03T15:17:30.180Z,17.24
2023-04-03T15:20:02.006Z,18.05
2023-04-03T15:22:32.323Z,18.39
2023-04-03T15:25:03.154Z,17.11
2023-04-03T15:27:34.823Z,17.40
2023-04-03T15:30:08.076Z,17.67
2023-04-03T15:32:38.102Z,17.85
2023-04-03T15:35:09.539Z,17.41
2023-04-03T15:37:39.928Z,17.09
2023-04-03T15:40:10.587Z,16.92
2023-04-03T15:42:45.674Z,17.75
2023-04-03T15:45:15.919Z,16.60
2023-04-03T15:47:45.531Z,16.86
2023-04-03T15:50:16.821Z,16.34
2023-04-03T15:52:46.847Z,16.52
2023-04-03T15:55:16.948Z,16.63
2023-04-03T15:58:32.441Z,16.41
2023-04-03T16:01:04.921Z,17.20
2023-04-03T16:03:35.191Z,16.75
2023-04-03T16:06:11.323Z,16.45
2023-04-03T16:08:41.395Z,16.19
2023-04-03T16:11:11.976Z,16.22
2023-04-03T16:13:43.438Z,16.54
2023-04-03T16:16:13.341Z,16.75
2023-04-03T16:18:43.032Z,16.15
2023-04-03T16:21:12.726Z,16.71
2023-04-03T16:23:47.808Z,16.85
2023-04-03T16:26:19.152Z,16.49
2023-04-03T16:29:01.519Z,16.76
2023-04-03T16:31:31.484Z,16.69
2023-04-03T16:34:02.312Z,17.15
2023-04-03T16:36:32.864Z,17.39
2023-04-03T16:39:14.324Z,16.78
2023-04-03T16:41:44.900Z,17.39
2023-04-03T16:44:16.653Z,16.95
2023-04-03T16:46:47.844Z,16.63
2023-04-03T16:49:20.412Z,17.39
2023-04-03T16:51:53.895Z,17.33
2023-04-03T16:54:42.137Z,17.12
2023-04-03T16:57:13.118Z,17.69
2023-04-03T16:59:45.861Z,17.72
2023-04-03T17:02:16.385Z,17.80
2023-04-03T17:04:59.428Z,17.82
2023-04-03T17:07:32.030Z,17.58
2023-04-03T17:10:09.057Z,17.96
2023-04-03T17:12:40.699Z,18.00
2023-04-03T17:15:13.558Z,18.52
2023-04-03T17:17:45.249Z,19.00
2023-04-03T17:20:18.101Z,19.18
2023-04-03T17:22:47.936Z,19.23
2023-04-03T17:25:35.348Z,19.61
2023-04-03T17:28:05.194Z,20.44
2023-04-03T17:30:38.571Z,21.25
2023-04-03T17:33:10.023Z,22.05
2023-04-03T17:35:40.217Z,22.49
2023-04-03T17:38:11.545Z,23.73
2023-04-03T17:40:43.566Z,24.55
2023-04-03T17:43:27.516Z,24.64
2023-04-03T17:46:06.059Z,25.17
2023-04-03T17:48:36.516Z,25.76
2023-04-03T17:51:16.641Z,26.21
2023-04-03T17:53:46.217Z,26.76
2023-04-03T17:56:35.176Z,28.31
2023-04-03T17:59:12.074Z,29.39
2023-04-03T18:01:47.894Z,30.74
2023-04-03T18:04:24.314Z,31.22
2023-04-03T18:06:58.453Z,31.63
2023-04-03T18:09:33.355Z,32.47
2023-04-03T18:12:35.882Z,33.09
2023-04-03T18:15:24.510Z,34.04
2023-04-03T18:17:58.704Z,34.54
2023-04-03T18:20:33.855Z,35.53
2023-04-03T18:23:04.275Z,36.71
2023-04-03T18:25:36.735Z,36.99
2023-04-03T18:28:07.385Z,38.55
2023-04-03T18:30:46.085Z,38.43
2023-04-03T18:33:16.631Z,39.42
2023-04-03T18:35:46.647Z,39.95
2023-04-03T18:38:16.462Z,40.68
2023-04-03T18:40:47.699Z,41.44
2023-04-03T18:43:17.641Z,42.12
2023-04-03T18:45:48.856Z,43.10
2023-04-03T18:48:24.441Z,44.36
2023-04-03T18:50:56.639Z,43.46
2023-04-03T18:53:48.024Z,43.38
2023-04-03T18:56:17.162Z,44.91
2023-04-03T18:58:46.892Z,45.76
2023-04-03T19:01:17.522Z,45.54
2023-04-03T19:03:52.848Z,46.62
2023-04-03T19:06:25.986Z,46.73
2023-04-03T19:09:12.597Z,47.09
2023-04-03T19:11:42.729Z,47.70
2023-04-03T19:14:16.812Z,48.54
2023-04-03T19:16:48.286Z,48.43
2023-04-03T19:19:33.533Z,49.48
2023-04-03T19:22:02.808Z,49.50
2023-04-03T19:24:39.608Z,49.85
2023-04-03T19:27:08.776Z,50.34
2023-04-03T19:29:39.002Z,50.52
2023-04-03T19:32:10.762Z,51.04
2023-04-03T19:34:43.574Z,51.36
2023-04-03T19:37:17.954Z,51.68
2023-04-03T19:39:48.010Z,51.53
2023-04-03T19:42:17.769Z,51.88
2023-04-03T19:44:58.423Z,52.14
2023-04-03T19:47:30.508Z,52.90
2023-04-03T19:50:02.965Z,52.92
2023-04-03T19:52:32.864Z,53.22
2023-04-03T19:55:03.238Z,53.12
2023-04-03T19:57:33.687Z,53.98
2023-04-03T20:00:09.455Z,54.33
2023-04-03T20:02:38.851Z,53.67
2023-04-03T20:05:14.584Z,54.05
2023-04-03T20:07:43.929Z,54.74
2023-04-03T20:10:14.202Z,55.01
2023-04-03T20:12:43.732Z,55.07
2023-04-03T20:15:21.352Z,55.28
2023-04-03T20:17:55.867Z,55.26
2023-04-03T20:20:42.375Z,55.39
2023-04-03T20:23:13.081Z,55.74
2023-04-03T20:26:09.410Z,56.43
2023-04-03T20:28:44.122Z,56.11
2023-04-03T20:31:13.824Z,56.68
2023-04-03T20:33:45.735Z,57.20
2023-04-03T20:36:20.070Z,56.86
2023-04-03T20:38:55.904Z,57.11
2023-04-03T20:41:29.409Z,57.36
2023-04-03T20:44:00.868Z,58.21
2023-04-03T20:46:53.111Z,58.01
2023-04-03T20:49:41.092Z,58.36
2023-04-03T20:52:12.397Z,58.16
2023-04-03T20:54:41.824Z,58.58
2023-04-03T20:57:11.490Z,59.00
2023-04-03T20:59:42.415Z,59.01
2023-04-03T21:02:13.155Z,60.36
2023-04-03T21:04:49.526Z,60.28
2023-04-03T21:08:16.660Z,59.79
2023-04-03T21:11:42.429Z,59.58
2023-04-03T21:15:07.275Z,59.88
2023-04-03T21:17:37.493Z,60.07
2023-04-03T21:20:08.949Z,61.30
2023-04-03T21:22:44.999Z,61.89
2023-04-03T21:25:16.790Z,61.99
2023-04-03T21:27:46.500Z,61.41
2023-04-03T21:30:30.401Z,61.93
2023-04-03T21:33:02.193Z,61.99
2023-04-03T21:35:34.120Z,62.75
2023-04-03T21:38:29.743Z,63.38
2023-04-03T21:41:00.754Z,62.73
2023-04-03T21:43:31.613Z,63.97
2023-04-03T21:46:02.312Z,64.20
2023-04-03T21:48:31.999Z,63.71
2023-04-03T21:51:09.631Z,63.60
2023-04-03T21:53:47.666Z,64.57
2023-04-03T21:56:17.494Z,64.31
2023-04-03T21:58:48.307Z,65.10
2023-04-03T22:01:19.525Z,65.14
2023-04-03T22:03:49.623Z,65.33
2023-04-03T22:06:22.280Z,65.17
2023-04-03T22:08:52.937Z,65.58
2023-04-03T22:11:26.480Z,65.32
2023-04-03T22:13:58.486Z,65.03
2023-04-03T22:16:30.355Z,65.58
2023-04-03T22:19:01.681Z,65.50
2023-04-03T22:21:34.863Z,66.55
2023-04-03T22:24:05.051Z,66.60
2023-04-03T22:26:35.045Z,65.77
2023-04-03T22:29:16.415Z,65.73
2023-04-03T22:31:46.198Z,66.99
2023-04-03T22:34:17.146Z,66.63
2023-04-03T22:36:58.779Z,66.76
2023-04-03T22:39:30.869Z,66.14
2023-04-03T22:42:02.047Z,66.55
2023-04-03T22:44:36.270Z,66.81
2023-04-03T22:47:07.718Z,66.88
2023-04-03T22:49:39.449Z,67.77
2023-04-03T22:52:12.258Z,66.52
2023-04-03T22:54:52.416Z,67.49
2023-04-03T22:57:28.656Z,67.06
2023-04-03T23:00:01.783Z,66.92
2023-04-03T23:02:36.721Z,67.49
2023-04-03T23:05:08.578Z,68.33
2023-04-03T23:08:05.817Z,67.52
2023-04-03T23:10:35.272Z,67.39
2023-04-03T23:13:04.923Z,67.88
2023-04-03T23:15:34.903Z,67.90
2023-04-03T23:18:03.928Z,67.87
2023-04-03T23:20:32.958Z,68.79
2023-04-03T23:23:06.297Z,68.46
2023-04-03T23:25:38.597Z,68.76
2023-04-03T23:28:09.174Z,69.10
2023-04-03T23:30:40.220Z,69.62
2023-04-03T23:33:10.412Z,69.20
2023-04-03T23:35:46.842Z,69.78
2023-04-03T23:38:18.395Z,69.84
2023-04-03T23:40:49.207Z,69.66
2023-04-03T23:43:18.767Z,69.77
2023-04-03T23:45:48.468Z,70.52
2023-04-03T23:48:18.589Z,70.78
2023-04-03T23:50:48.773Z,71.04
2023-04-03T23:53:19.642Z,71.33
2023-04-03T23:55:49.757Z,70.38
2023-04-03T23:58:19.476Z,70.99
